Ausable Chasm, New York
Current Conditions -  °F | °C
As of 5:53 PM on Monday 22 Dec 2014 (Local Time) from KPBG Reporting Station
Overcast Overcast  
Wind Chill: 16°   Ceiling: 4400
Heat Index: 22°   Visibility: 8mi
Dew Point: 18°   Wind: 5mph
Humidity: 85%   Direction: 360°N
Pressure: 30.31"   Gusts: NA
Location:  44.5125°N, 73.5235°W
Report Text: KPBG 222253Z AUTO 36004KT 8SM OVC044 M06/M08 A3031 RMK AO2 SLP270 T10561078
Loading
Personal Weather Stations






























Interactive Weather Map New forecast layout! Learn more

10-Day Weather Forecast

Advertisements
Track Severe Weather on mobile